sensor_id;sensor_type;location;lat;lon;timestamp;pressure;altitude;pressure_sealevel;temperature;humidity
48872;BME280;36154;51.674;7.824;2023-08-06T00:00:01;99774.56;;;21.27;54.74
48872;BME280;36154;51.674;7.824;2023-08-06T00:02:28;99779.75;;;21.27;54.73
48872;BME280;36154;51.674;7.824;2023-08-06T00:04:53;99766.03;;;21.25;54.82
48872;BME280;36154;51.674;7.824;2023-08-06T00:07:18;99775.47;;;21.26;54.82
48872;BME280;36154;51.674;7.824;2023-08-06T00:09:43;99773.84;;;21.23;54.82
48872;BME280;36154;51.674;7.824;2023-08-06T00:12:09;99775.63;;;21.23;54.79
48872;BME280;36154;51.674;7.824;2023-08-06T00:14:34;99776.53;;;21.22;54.76
48872;BME280;36154;51.674;7.824;2023-08-06T00:16:59;99756.16;;;21.14;54.77
48872;BME280;36154;51.674;7.824;2023-08-06T00:19:25;99770.56;;;21.20;54.81
48872;BME280;36154;51.674;7.824;2023-08-06T00:21:50;99765.47;;;21.18;54.90
48872;BME280;36154;51.674;7.824;2023-08-06T00:24:15;99753.50;;;21.16;54.91
48872;BME280;36154;51.674;7.824;2023-08-06T00:26:41;99757.75;;;21.17;55.04
48872;BME280;36154;51.674;7.824;2023-08-06T00:29:06;99743.28;;;21.13;54.92
48872;BME280;36154;51.674;7.824;2023-08-06T00:31:31;99745.88;;;21.13;54.99
48872;BME280;36154;51.674;7.824;2023-08-06T00:33:57;99741.59;;;21.12;54.88
48872;BME280;36154;51.674;7.824;2023-08-06T00:36:22;99747.56;;;21.14;55.14
48872;BME280;36154;51.674;7.824;2023-08-06T00:38:47;99744.19;;;21.12;55.08
48872;BME280;36154;51.674;7.824;2023-08-06T00:41:13;99745.88;;;21.13;55.01
48872;BME280;36154;51.674;7.824;2023-08-06T00:43:39;99756.22;;;21.13;55.04
48872;BME280;36154;51.674;7.824;2023-08-06T00:46:05;99754.53;;;21.12;55.01
48872;BME280;36154;51.674;7.824;2023-08-06T00:48:31;99753.00;;;21.08;55.10
48872;BME280;36154;51.674;7.824;2023-08-06T00:50:56;99746.91;;;21.09;55.06
48872;BME280;36154;51.674;7.824;2023-08-06T00:53:21;99732.44;;;21.04;55.04
48872;BME280;36154;51.674;7.824;2023-08-06T00:55:47;99731.59;;;21.04;55.09
48872;BME280;36154;51.674;7.824;2023-08-06T00:58:13;99730.53;;;21.08;54.90
48872;BME280;36154;51.674;7.824;2023-08-06T01:00:39;99719.53;;;21.03;55.10
48872;BME280;36154;51.674;7.824;2023-08-06T01:03:04;99732.44;;;21.04;54.97
48872;BME280;36154;51.674;7.824;2023-08-06T01:05:30;99726.41;;;21.04;55.15
48872;BME280;36154;51.674;7.824;2023-08-06T01:08:15;99717.03;;;21.01;55.07
48872;BME280;36154;51.674;7.824;2023-08-06T01:10:51;99723.91;;;21.02;54.92
48872;BME280;36154;51.674;7.824;2023-08-06T01:15:55;99712.78;;;21.00;55.08
48872;BME280;36154;51.674;7.824;2023-08-06T01:18:25;99711.97;;;20.98;55.11
48872;BME280;36154;51.674;7.824;2023-08-06T01:20:50;99709.53;;;20.95;55.06
48872;BME280;36154;51.674;7.824;2023-08-06T01:23:15;99706.16;;;20.93;55.14
48872;BME280;36154;51.674;7.824;2023-08-06T01:31:33;99700.38;;;20.88;55.10
48872;BME280;36154;51.674;7.824;2023-08-06T01:34:01;99701.06;;;20.92;55.17
48872;BME280;36154;51.674;7.824;2023-08-06T01:36:28;99693.53;;;20.87;55.23
48872;BME280;36154;51.674;7.824;2023-08-06T01:38:53;99696.13;;;20.87;55.02
48872;BME280;36154;51.674;7.824;2023-08-06T01:41:19;99697.72;;;20.90;54.98
48872;BME280;36154;51.674;7.824;2023-08-06T01:43:44;99696.88;;;20.89;55.12
48872;BME280;36154;51.674;7.824;2023-08-06T01:46:10;99698.53;;;20.90;54.90
48872;BME280;36154;51.674;7.824;2023-08-06T01:48:35;99681.47;;;20.86;54.93
48872;BME280;36154;51.674;7.824;2023-08-06T01:51:01;99688.34;;;20.87;55.04
48872;BME280;36154;51.674;7.824;2023-08-06T01:53:28;99688.47;;;20.84;54.89
48872;BME280;36154;51.674;7.824;2023-08-06T01:55:53;99682.44;;;20.83;54.98
48872;BME280;36154;51.674;7.824;2023-08-06T01:58:19;99682.38;;;20.85;54.88
48872;BME280;36154;51.674;7.824;2023-08-06T02:00:44;99674.09;;;20.77;54.93
48872;BME280;36154;51.674;7.824;2023-08-06T02:03:09;99677.50;;;20.79;55.11
48872;BME280;36154;51.674;7.824;2023-08-06T02:05:35;99673.06;;;20.81;55.10
48872;BME280;36154;51.674;7.824;2023-08-06T02:08:00;99669.56;;;20.82;54.95
48872;BME280;36154;51.674;7.824;2023-08-06T02:10:27;99669.66;;;20.80;55.20
48872;BME280;36154;51.674;7.824;2023-08-06T02:12:53;99659.50;;;20.76;55.01
48872;BME280;36154;51.674;7.824;2023-08-06T02:15:18;99661.91;;;20.80;54.92
48872;BME280;36154;51.674;7.824;2023-08-06T02:17:43;99661.25;;;20.75;55.13
48872;BME280;36154;51.674;7.824;2023-08-06T02:20:09;99656.16;;;20.74;55.07
48872;BME280;36154;51.674;7.824;2023-08-06T02:22:34;99658.13;;;20.68;55.16
48872;BME280;36154;51.674;7.824;2023-08-06T02:25:02;99667.34;;;20.74;55.06
48872;BME280;36154;51.674;7.824;2023-08-06T02:27:27;99656.28;;;20.71;54.94
48872;BME280;36154;51.674;7.824;2023-08-06T02:29:52;99664.88;;;20.71;55.05
48872;BME280;36154;51.674;7.824;2023-08-06T02:32:18;99663.13;;;20.72;55.25
48872;BME280;36154;51.674;7.824;2023-08-06T02:34:43;99651.31;;;20.66;55.13
48872;BME280;36154;51.674;7.824;2023-08-06T02:37:08;99653.06;;;20.65;55.26
48872;BME280;36154;51.674;7.824;2023-08-06T02:39:33;99664.13;;;20.69;55.19
48872;BME280;36154;51.674;7.824;2023-08-06T02:42:00;99657.25;;;20.68;55.00
48872;BME280;36154;51.674;7.824;2023-08-06T02:44:28;99644.50;;;20.63;55.24
48872;BME280;36154;51.674;7.824;2023-08-06T02:46:54;99646.19;;;20.64;55.31
48872;BME280;36154;51.674;7.824;2023-08-06T02:49:19;99658.13;;;20.68;55.29
48872;BME280;36154;51.674;7.824;2023-08-06T02:51:45;99649.56;;;20.66;55.44
48872;BME280;36154;51.674;7.824;2023-08-06T02:54:10;99647.91;;;20.65;55.39
48872;BME280;36154;51.674;7.824;2023-08-06T02:56:38;99645.44;;;20.62;55.28
48872;BME280;36154;51.674;7.824;2023-08-06T02:59:03;99643.69;;;20.63;55.48
48872;BME280;36154;51.674;7.824;2023-08-06T03:01:29;99651.38;;;20.64;55.47
48872;BME280;36154;51.674;7.824;2023-08-06T03:03:54;99648.16;;;20.59;55.49
48872;BME280;36154;51.674;7.824;2023-08-06T03:06:19;99652.38;;;20.62;55.60
48872;BME280;36154;51.674;7.824;2023-08-06T03:08:45;99638.72;;;20.58;55.46
48872;BME280;36154;51.674;7.824;2023-08-06T03:11:10;99634.59;;;20.54;55.71
48872;BME280;36154;51.674;7.824;2023-08-06T03:13:35;99633.59;;;20.57;55.62
48872;BME280;36154;51.674;7.824;2023-08-06T03:16:00;99643.13;;;20.56;55.63
48872;BME280;36154;51.674;7.824;2023-08-06T03:18:26;99626.19;;;20.49;55.93
48872;BME280;36154;51.674;7.824;2023-08-06T03:20:52;99630.44;;;20.50;55.88
48872;BME280;36154;51.674;7.824;2023-08-06T03:23:17;99626.13;;;20.51;55.97
48872;BME280;36154;51.674;7.824;2023-08-06T03:25:43;99629.53;;;20.51;56.19
48872;BME280;36154;51.674;7.824;2023-08-06T03:28:09;99612.59;;;20.44;56.07
48872;BME280;36154;51.674;7.824;2023-08-06T03:30:34;99626.19;;;20.49;56.12
48872;BME280;36154;51.674;7.824;2023-08-06T03:32:59;99627.13;;;20.46;56.21
48872;BME280;36154;51.674;7.824;2023-08-06T03:35:24;99599.28;;;20.33;55.96
48872;BME280;36154;51.674;7.824;2023-08-06T03:37:50;99623.59;;;20.49;56.06
48872;BME280;36154;51.674;7.824;2023-08-06T03:40:15;99619.34;;;20.48;56.44
48872;BME280;36154;51.674;7.824;2023-08-06T03:42:40;99609.94;;;20.45;56.28
48872;BME280;36154;51.674;7.824;2023-08-06T03:45:06;99606.31;;;20.49;56.43
48872;BME280;36154;51.674;7.824;2023-08-06T03:47:32;99608.97;;;20.48;56.14
48872;BME280;36154;51.674;7.824;2023-08-06T03:49:57;99610.66;;;20.49;56.13
48872;BME280;36154;51.674;7.824;2023-08-06T03:52:22;99612.34;;;20.50;56.27
48872;BME280;36154;51.674;7.824;2023-08-06T03:54:48;99613.25;;;20.49;56.12
48872;BME280;36154;51.674;7.824;2023-08-06T03:57:13;99608.09;;;20.49;56.19
48872;BME280;36154;51.674;7.824;2023-08-06T03:59:38;99607.16;;;20.50;56.12
48872;BME280;36154;51.674;7.824;2023-08-06T04:02:04;99610.66;;;20.49;56.17
48872;BME280;36154;51.674;7.824;2023-08-06T04:04:29;99605.56;;;20.47;56.17
48872;BME280;36154;51.674;7.824;2023-08-06T04:06:54;99598.81;;;20.43;55.96
48872;BME280;36154;51.674;7.824;2023-08-06T04:09:20;99603.75;;;20.49;56.03
48872;BME280;36154;51.674;7.824;2023-08-06T04:11:45;99597.06;;;20.44;56.20
48872;BME280;36154;51.674;7.824;2023-08-06T04:14:10;99595.25;;;20.46;56.04
48872;BME280;36154;51.674;7.824;2023-08-06T04:16:36;99596.03;;;20.48;56.02
48872;BME280;36154;51.674;7.824;2023-08-06T04:19:01;99595.44;;;20.41;56.05
48872;BME280;36154;51.674;7.824;2023-08-06T04:21:26;99603.91;;;20.45;56.02
48872;BME280;36154;51.674;7.824;2023-08-06T04:23:51;99600.41;;;20.46;55.95
48872;BME280;36154;51.674;7.824;2023-08-06T04:26:17;99590.34;;;20.40;56.00
48872;BME280;36154;51.674;7.824;2023-08-06T04:28:42;99590.97;;;20.45;55.98
48872;BME280;36154;51.674;7.824;2023-08-06T04:31:07;99586.03;;;20.40;56.26
48872;BME280;36154;51.674;7.824;2023-08-06T04:33:33;99593.72;;;20.42;56.10
48872;BME280;36154;51.674;7.824;2023-08-06T04:35:59;99592.78;;;20.43;56.18
48872;BME280;36154;51.674;7.824;2023-08-06T04:38:24;99599.78;;;20.41;55.80
48872;BME280;36154;51.674;7.824;2023-08-06T04:40:52;99592.94;;;20.40;55.98
48872;BME280;36154;51.674;7.824;2023-08-06T04:43:20;99583.63;;;20.36;56.01
48872;BME280;36154;51.674;7.824;2023-08-06T04:45:46;99592.88;;;20.41;55.84
48872;BME280;36154;51.674;7.824;2023-08-06T04:48:12;99590.34;;;20.40;55.70
48872;BME280;36154;51.674;7.824;2023-08-06T04:50:37;99587.00;;;20.38;56.12
48872;BME280;36154;51.674;7.824;2023-08-06T04:53:02;99593.84;;;20.39;55.93
48872;BME280;36154;51.674;7.824;2023-08-06T04:55:28;99594.75;;;20.38;55.74
48872;BME280;36154;51.674;7.824;2023-08-06T04:57:53;99582.94;;;20.32;55.90
48872;BME280;36154;51.674;7.824;2023-08-06T05:00:18;99576.28;;;20.26;55.87
48872;BME280;36154;51.674;7.824;2023-08-06T05:02:44;99598.91;;;20.42;55.99
48872;BME280;36154;51.674;7.824;2023-08-06T05:05:09;99593.16;;;20.35;55.89
48872;BME280;36154;51.674;7.824;2023-08-06T05:07:35;99596.38;;;20.40;56.06
48872;BME280;36154;51.674;7.824;2023-08-06T05:10:01;99596.44;;;20.39;56.03
48872;BME280;36154;51.674;7.824;2023-08-06T05:12:26;99597.34;;;20.38;56.06
48872;BME280;36154;51.674;7.824;2023-08-06T05:14:51;99607.56;;;20.41;55.79
48872;BME280;36154;51.674;7.824;2023-08-06T05:17:19;99595.59;;;20.38;56.06
48872;BME280;36154;51.674;7.824;2023-08-06T05:19:44;99608.31;;;20.43;55.98
48872;BME280;36154;51.674;7.824;2023-08-06T05:22:09;99612.66;;;20.42;55.92
48872;BME280;36154;51.674;7.824;2023-08-06T05:24:35;99606.66;;;20.42;56.20
48872;BME280;36154;51.674;7.824;2023-08-06T05:27:00;99600.63;;;20.41;55.98
48872;BME280;36154;51.674;7.824;2023-08-06T05:29:25;99600.56;;;20.43;56.15
48872;BME280;36154;51.674;7.824;2023-08-06T05:31:52;99597.41;;;20.36;56.17
48872;BME280;36154;51.674;7.824;2023-08-06T05:34:17;99604.06;;;20.42;55.86
48872;BME280;36154;51.674;7.824;2023-08-06T05:36:42;99605.88;;;20.40;56.34
48872;BME280;36154;51.674;7.824;2023-08-06T05:39:08;99613.44;;;20.44;56.37
48872;BME280;36154;51.674;7.824;2023-08-06T05:41:33;99609.09;;;20.45;56.21
48872;BME280;36154;51.674;7.824;2023-08-06T05:43:58;99594.81;;;20.36;56.03
48872;BME280;36154;51.674;7.824;2023-08-06T05:46:24;99603.00;;;20.46;56.25
48872;BME280;36154;51.674;7.824;2023-08-06T05:48:49;99600.56;;;20.43;56.21
48872;BME280;36154;51.674;7.824;2023-08-06T05:51:16;99596.22;;;20.43;56.34
48872;BME280;36154;51.674;7.824;2023-08-06T05:53:41;99596.16;;;20.45;56.06
48872;BME280;36154;51.674;7.824;2023-08-06T05:56:09;99609.84;;;20.48;56.05
48872;BME280;36154;51.674;7.824;2023-08-06T05:58:34;99601.16;;;20.49;56.34
48872;BME280;36154;51.674;7.824;2023-08-06T06:01:00;99596.81;;;20.50;56.29
48872;BME280;36154;51.674;7.824;2023-08-06T06:03:25;99588.31;;;20.46;56.10
48872;BME280;36154;51.674;7.824;2023-08-06T06:05:50;99601.84;;;20.53;56.20
48872;BME280;36154;51.674;7.824;2023-08-06T06:08:16;99589.97;;;20.49;56.35
48872;BME280;36154;51.674;7.824;2023-08-06T06:10:41;99598.50;;;20.51;56.33
48872;BME280;36154;51.674;7.824;2023-08-06T06:13:06;99591.63;;;20.50;56.17
48872;BME280;36154;51.674;7.824;2023-08-06T06:15:32;99589.97;;;20.49;56.34
48872;BME280;36154;51.674;7.824;2023-08-06T06:17:57;99597.66;;;20.51;56.29
48872;BME280;36154;51.674;7.824;2023-08-06T06:20:23;99593.19;;;20.54;56.37
48872;BME280;36154;51.674;7.824;2023-08-06T06:22:48;99599.06;;;20.58;56.21
48872;BME280;36154;51.674;7.824;2023-08-06T06:25:13;99601.72;;;20.56;56.59
48872;BME280;36154;51.674;7.824;2023-08-06T06:27:38;99606.75;;;20.59;56.47
48872;BME280;36154;51.674;7.824;2023-08-06T06:30:04;99613.56;;;20.62;56.42
48872;BME280;36154;51.674;7.824;2023-08-06T06:32:30;99611.94;;;20.59;56.19
48872;BME280;36154;51.674;7.824;2023-08-06T06:34:55;99617.88;;;20.61;56.68
48872;BME280;36154;51.674;7.824;2023-08-06T06:37:20;99613.63;;;20.60;56.61
48872;BME280;36154;51.674;7.824;2023-08-06T06:39:46;99615.28;;;20.61;56.51
48872;BME280;36154;51.674;7.824;2023-08-06T06:42:11;99625.38;;;20.67;56.91
48872;BME280;36154;51.674;7.824;2023-08-06T06:44:36;99622.00;;;20.65;56.80
48872;BME280;36154;51.674;7.824;2023-08-06T06:47:02;99622.78;;;20.67;57.12
48872;BME280;36154;51.674;7.824;2023-08-06T06:49:27;99616.84;;;20.65;57.04
48872;BME280;36154;51.674;7.824;2023-08-06T06:51:52;99632.06;;;20.72;57.05
48872;BME280;36154;51.674;7.824;2023-08-06T06:54:18;99614.88;;;20.71;56.98
48872;BME280;36154;51.674;7.824;2023-08-06T06:56:43;99616.41;;;20.75;56.91
48872;BME280;36154;51.674;7.824;2023-08-06T06:59:08;99607.75;;;20.76;56.91
48872;BME280;36154;51.674;7.824;2023-08-06T07:01:34;99608.44;;;20.79;57.04
48872;BME280;36154;51.674;7.824;2023-08-06T07:03:59;99619.63;;;20.80;56.86
48872;BME280;36154;51.674;7.824;2023-08-06T07:06:29;99621.16;;;20.84;57.18
48872;BME280;36154;51.674;7.824;2023-08-06T07:08:54;99614.94;;;20.88;56.85
48872;BME280;36154;51.674;7.824;2023-08-06T07:11:20;99610.69;;;20.87;56.94
48872;BME280;36154;51.674;7.824;2023-08-06T07:13:45;99611.50;;;20.88;57.02
48872;BME280;36154;51.674;7.824;2023-08-06T07:16:10;99615.56;;;20.93;56.89
48872;BME280;36154;51.674;7.824;2023-08-06T07:18:36;99629.91;;;21.00;56.50
48872;BME280;36154;51.674;7.824;2023-08-06T07:21:01;99627.31;;;21.00;56.63
48872;BME280;36154;51.674;7.824;2023-08-06T07:23:26;99633.25;;;21.02;56.52
48872;BME280;36154;51.674;7.824;2023-08-06T07:25:52;99621.22;;;21.01;56.25
48872;BME280;36154;51.674;7.824;2023-08-06T07:28:17;99630.53;;;21.05;56.32
48872;BME280;36154;51.674;7.824;2023-08-06T07:30:43;99627.78;;;21.09;56.10
48872;BME280;36154;51.674;7.824;2023-08-06T07:33:09;99628.56;;;21.11;56.02
48872;BME280;36154;51.674;7.824;2023-08-06T07:35:35;99624.91;;;21.15;55.83
48872;BME280;36154;51.674;7.824;2023-08-06T07:38:01;99620.66;;;21.14;55.87
48872;BME280;36154;51.674;7.824;2023-08-06T07:40:27;99631.47;;;21.22;55.81
48872;BME280;36154;51.674;7.824;2023-08-06T07:42:52;99630.47;;;21.24;55.56
48872;BME280;36154;51.674;7.824;2023-08-06T07:45:18;99627.81;;;21.26;55.14
48872;BME280;36154;51.674;7.824;2023-08-06T07:47:43;99610.81;;;21.20;55.04
48872;BME280;36154;51.674;7.824;2023-08-06T07:50:09;99634.56;;;21.30;54.78
48872;BME280;36154;51.674;7.824;2023-08-06T07:52:34;99631.81;;;21.33;54.65
48872;BME280;36154;51.674;7.824;2023-08-06T07:55:00;99626.72;;;21.32;54.42
48872;BME280;36154;51.674;7.824;2023-08-06T07:57:29;99625.75;;;21.34;54.04
48872;BME280;36154;51.674;7.824;2023-08-06T07:59:55;99619.78;;;21.32;53.73
48872;BME280;36154;51.674;7.824;2023-08-06T08:02:20;99630.78;;;21.37;53.56
48872;BME280;36154;51.674;7.824;2023-08-06T08:04:45;99622.00;;;21.40;53.39
48872;BME280;36154;51.674;7.824;2023-08-06T08:07:12;99615.22;;;21.37;53.29
48872;BME280;36154;51.674;7.824;2023-08-06T08:09:38;99624.53;;;21.41;53.27
48872;BME280;36154;51.674;7.824;2023-08-06T08:12:03;99615.06;;;21.40;53.29
48872;BME280;36154;51.674;7.824;2023-08-06T08:14:29;99617.50;;;21.44;53.44
48872;BME280;36154;51.674;7.824;2023-08-06T08:16:58;99614.09;;;21.43;53.59
48872;BME280;36154;51.674;7.824;2023-08-06T08:19:23;99615.69;;;21.46;53.47
48872;BME280;36154;51.674;7.824;2023-08-06T08:21:49;99622.53;;;21.47;53.27
48872;BME280;36154;51.674;7.824;2023-08-06T08:24:14;99615.84;;;21.42;53.28
48872;BME280;36154;51.674;7.824;2023-08-06T08:26:39;99614.84;;;21.45;52.67
48872;BME280;36154;51.674;7.824;2023-08-06T08:29:05;99622.53;;;21.47;52.49
48872;BME280;36154;51.674;7.824;2023-08-06T08:31:30;99616.66;;;21.43;52.45
48872;BME280;36154;51.674;7.824;2023-08-06T08:33:55;99614.09;;;21.43;52.72
48872;BME280;36154;51.674;7.824;2023-08-06T08:36:21;99618.44;;;21.42;52.52
48872;BME280;36154;51.674;7.824;2023-08-06T08:38:46;99609.13;;;21.38;52.08
48872;BME280;36154;51.674;7.824;2023-08-06T08:41:12;99614.09;;;21.43;52.66
48872;BME280;36154;51.674;7.824;2023-08-06T08:43:38;99611.28;;;21.48;52.73
48872;BME280;36154;51.674;7.824;2023-08-06T08:46:06;99616.31;;;21.51;52.67
48872;BME280;36154;51.674;7.824;2023-08-06T08:48:34;99609.16;;;21.56;52.95
48872;BME280;36154;51.674;7.824;2023-08-06T08:50:59;99609.16;;;21.56;52.95
48872;BME280;36154;51.674;7.824;2023-08-06T08:53:26;99606.38;;;21.59;52.67
48872;BME280;36154;51.674;7.824;2023-08-06T08:55:53;99610.50;;;21.63;52.80
48872;BME280;36154;51.674;7.824;2023-08-06T08:58:19;99609.34;;;21.69;52.53
48872;BME280;36154;51.674;7.824;2023-08-06T09:00:48;99605.03;;;21.69;52.64
48872;BME280;36154;51.674;7.824;2023-08-06T09:03:14;99614.25;;;21.75;52.73
48872;BME280;36154;51.674;7.824;2023-08-06T09:05:43;99612.47;;;21.75;52.72
48872;BME280;36154;51.674;7.824;2023-08-06T09:08:11;99610.56;;;21.79;52.72
48872;BME280;36154;51.674;7.824;2023-08-06T09:10:39;99616.47;;;21.83;52.86
48872;BME280;36154;51.674;7.824;2023-08-06T09:13:04;99614.47;;;21.88;52.58
48872;BME280;36154;51.674;7.824;2023-08-06T09:15:31;99617.81;;;21.90;52.58
48872;BME280;36154;51.674;7.824;2023-08-06T09:17:57;99604.94;;;21.88;52.33
48872;BME280;36154;51.674;7.824;2023-08-06T09:20:22;99609.28;;;21.88;52.41
48872;BME280;36154;51.674;7.824;2023-08-06T09:22:48;99620.00;;;21.97;52.25
48872;BME280;36154;51.674;7.824;2023-08-06T09:25:24;99612.16;;;21.99;52.05
48872;BME280;36154;51.674;7.824;2023-08-06T09:27:50;99612.16;;;21.99;52.04
48872;BME280;36154;51.674;7.824;2023-08-06T09:30:33;99613.00;;;22.00;51.70
48872;BME280;36154;51.674;7.824;2023-08-06T09:32:59;99622.38;;;22.02;51.75
48872;BME280;36154;51.674;7.824;2023-08-06T09:35:30;99617.19;;;22.02;51.98
48872;BME280;36154;51.674;7.824;2023-08-06T09:37:59;99608.66;;;22.00;51.46
48872;BME280;36154;51.674;7.824;2023-08-06T09:40:31;99611.84;;;22.05;51.40
48872;BME280;36154;51.674;7.824;2023-08-06T09:42:59;99616.16;;;22.06;51.55
48872;BME280;36154;51.674;7.824;2023-08-06T09:45:35;99614.22;;;22.10;51.41
48872;BME280;36154;51.674;7.824;2023-08-06T09:48:05;99609.19;;;22.07;51.29
48872;BME280;36154;51.674;7.824;2023-08-06T09:50:32;99617.56;;;22.12;51.34
48872;BME280;36154;51.674;7.824;2023-08-06T09:53:02;99632.25;;;22.13;51.17
48872;BME280;36154;51.674;7.824;2023-08-06T09:55:27;99614.06;;;22.13;51.04
48872;BME280;36154;51.674;7.824;2023-08-06T09:57:53;99626.91;;;22.16;50.79
48872;BME280;36154;51.674;7.824;2023-08-06T10:00:20;99627.72;;;22.17;50.62
48872;BME280;36154;51.674;7.824;2023-08-06T10:02:47;99620.78;;;22.17;50.73
48872;BME280;36154;51.674;7.824;2023-08-06T10:05:14;99622.53;;;22.17;50.48
48872;BME280;36154;51.674;7.824;2023-08-06T10:07:42;99626.78;;;22.18;50.65
48872;BME280;36154;51.674;7.824;2023-08-06T10:10:08;99626.63;;;22.21;50.43
48872;BME280;36154;51.674;7.824;2023-08-06T10:12:37;99624.81;;;22.23;50.20
48872;BME280;36154;51.674;7.824;2023-08-06T10:15:08;99624.97;;;22.20;50.51
48872;BME280;36154;51.674;7.824;2023-08-06T10:17:35;99624.63;;;22.26;50.25
48872;BME280;36154;51.674;7.824;2023-08-06T10:20:02;99619.44;;;22.26;50.92
48872;BME280;36154;51.674;7.824;2023-08-06T10:22:32;99619.28;;;22.29;50.85
48872;BME280;36154;51.674;7.824;2023-08-06T10:24:58;99612.44;;;22.28;50.75
48872;BME280;36154;51.674;7.824;2023-08-06T10:27:32;99612.25;;;22.31;50.82
48872;BME280;36154;51.674;7.824;2023-08-06T10:30:23;99604.41;;;22.32;50.78
48872;BME280;36154;51.674;7.824;2023-08-06T10:32:53;99609.59;;;22.32;50.80
48872;BME280;36154;51.674;7.824;2023-08-06T10:35:28;99604.31;;;22.34;50.79
48872;BME280;36154;51.674;7.824;2023-08-06T10:38:14;99606.91;;;22.34;50.66
48872;BME280;36154;51.674;7.824;2023-08-06T10:40:48;99604.25;;;22.36;50.82
48872;BME280;36154;51.674;7.824;2023-08-06T10:43:37;99600.81;;;22.35;50.84
48872;BME280;36154;51.674;7.824;2023-08-06T10:46:13;99603.34;;;22.37;50.84
48872;BME280;36154;51.674;7.824;2023-08-06T10:48:45;99606.00;;;22.35;50.92
48872;BME280;36154;51.674;7.824;2023-08-06T10:51:12;99605.06;;;22.36;50.99
48872;BME280;36154;51.674;7.824;2023-08-06T10:53:42;99607.59;;;22.38;50.75
48872;BME280;36154;51.674;7.824;2023-08-06T10:56:17;99612.69;;;22.39;50.76
48872;BME280;36154;51.674;7.824;2023-08-06T10:58:44;99611.78;;;22.40;50.96
48872;BME280;36154;51.674;7.824;2023-08-06T11:01:11;99591.34;;;22.34;50.83
48872;BME280;36154;51.674;7.824;2023-08-06T11:03:37;99604.81;;;22.41;51.08
48872;BME280;36154;51.674;7.824;2023-08-06T11:06:04;99604.00;;;22.40;51.00
48872;BME280;36154;51.674;7.824;2023-08-06T11:08:34;99595.38;;;22.40;50.98
48872;BME280;36154;51.674;7.824;2023-08-06T11:11:13;99600.56;;;22.40;50.82
48872;BME280;36154;51.674;7.824;2023-08-06T11:13:43;99602.91;;;22.44;50.93
48872;BME280;36154;51.674;7.824;2023-08-06T11:16:11;99601.25;;;22.43;50.61
48872;BME280;36154;51.674;7.824;2023-08-06T11:18:36;99605.41;;;22.46;51.23
48872;BME280;36154;51.674;7.824;2023-08-06T11:21:02;99601.09;;;22.46;50.99
48872;BME280;36154;51.674;7.824;2023-08-06T11:23:28;99592.53;;;22.44;50.94
48872;BME280;36154;51.674;7.824;2023-08-06T11:25:54;99600.16;;;22.47;50.98
48872;BME280;36154;51.674;7.824;2023-08-06T11:28:20;99597.56;;;22.47;51.01
48872;BME280;36154;51.674;7.824;2023-08-06T11:30:51;99607.78;;;22.50;50.91
48872;BME280;36154;51.674;7.824;2023-08-06T11:33:21;99602.59;;;22.50;50.97
48872;BME280;36154;51.674;7.824;2023-08-06T11:35:47;99607.78;;;22.50;51.10
48872;BME280;36154;51.674;7.824;2023-08-06T11:38:13;99606.88;;;22.51;50.76
48872;BME280;36154;51.674;7.824;2023-08-06T11:40:39;99606.94;;;22.50;51.25
48872;BME280;36154;51.674;7.824;2023-08-06T11:43:06;99598.13;;;22.52;51.12
48872;BME280;36154;51.674;7.824;2023-08-06T11:45:35;99599.09;;;22.51;51.20
48872;BME280;36154;51.674;7.824;2023-08-06T11:48:00;99594.72;;;22.52;51.40
48872;BME280;36154;51.674;7.824;2023-08-06T11:50:26;99598.94;;;22.55;51.08
48872;BME280;36154;51.674;7.824;2023-08-06T11:52:57;99598.22;;;22.51;50.96
48872;BME280;36154;51.674;7.824;2023-08-06T11:55:24;99606.78;;;22.53;51.20
48872;BME280;36154;51.674;7.824;2023-08-06T11:57:49;99607.63;;;22.53;51.25
48872;BME280;36154;51.674;7.824;2023-08-06T12:00:15;99606.88;;;22.51;51.06
48872;BME280;36154;51.674;7.824;2023-08-06T12:02:44;99604.94;;;22.55;51.34
48872;BME280;36154;51.674;7.824;2023-08-06T12:05:17;99600.75;;;22.52;51.38
48872;BME280;36154;51.674;7.824;2023-08-06T12:07:51;99596.50;;;22.51;51.53
48872;BME280;36154;51.674;7.824;2023-08-06T12:10:17;99593.72;;;22.55;51.36
48872;BME280;36154;51.674;7.824;2023-08-06T12:12:44;99600.59;;;22.56;51.41
48872;BME280;36154;51.674;7.824;2023-08-06T12:15:10;99602.25;;;22.57;51.42
48872;BME280;36154;51.674;7.824;2023-08-06T12:17:36;99603.91;;;22.58;51.44
48872;BME280;36154;51.674;7.824;2023-08-06T12:20:03;99603.09;;;22.57;51.52
48872;BME280;36154;51.674;7.824;2023-08-06T12:22:35;99604.78;;;22.58;51.34
48872;BME280;36154;51.674;7.824;2023-08-06T12:25:01;99595.38;;;22.56;51.51
48872;BME280;36154;51.674;7.824;2023-08-06T12:27:27;99600.41;;;22.59;51.53
48872;BME280;36154;51.674;7.824;2023-08-06T12:29:53;99596.91;;;22.60;51.33
48872;BME280;36154;51.674;7.824;2023-08-06T12:32:18;99598.72;;;22.58;51.50
48872;BME280;36154;51.674;7.824;2023-08-06T12:34:44;99602.84;;;22.62;51.79
48872;BME280;36154;51.674;7.824;2023-08-06T12:37:09;99600.41;;;22.59;51.63
48872;BME280;36154;51.674;7.824;2023-08-06T12:39:36;99608.03;;;22.62;51.60
48872;BME280;36154;51.674;7.824;2023-08-06T12:42:03;99610.47;;;22.65;51.37
48872;BME280;36154;51.674;7.824;2023-08-06T12:44:28;99608.03;;;22.62;51.63
48872;BME280;36154;51.674;7.824;2023-08-06T12:46:54;99602.84;;;22.62;51.50
48872;BME280;36154;51.674;7.824;2023-08-06T12:49:20;99614.72;;;22.66;51.69
48872;BME280;36154;51.674;7.824;2023-08-06T12:51:50;99620.78;;;22.66;51.68
48872;BME280;36154;51.674;7.824;2023-08-06T12:54:20;99620.88;;;22.65;51.68
48872;BME280;36154;51.674;7.824;2023-08-06T12:56:46;99630.22;;;22.67;51.43
48872;BME280;36154;51.674;7.824;2023-08-06T12:59:13;99626.06;;;22.65;51.82
48872;BME280;36154;51.674;7.824;2023-08-06T13:01:38;99618.19;;;22.66;51.64
48872;BME280;36154;51.674;7.824;2023-08-06T13:04:04;99625.19;;;22.64;51.53